Time;durP1;ratioP1;P1;durP2;ratioP2;P2;SDS_P1;SDS_P2;PMS_P1;PMS_P2;Temp;Humidity;BMP_temperature;BMP_pressure;BME280_temperature;BME280_humidity;BME280_pressure;Samples;Min_cycle;Max_cycle;Signal;HPM_P1;HPM_P2
2021/03/23 00:00:54;;;;;;;5.50;4.20;;;10.00;72.50;;;;;;5008295;28;20029;-82
2021/03/23 00:03:28;;;;;;;4.68;3.72;;;10.00;72.50;;;;;;5034729;28;20037;-81
2021/03/23 00:05:55;;;;;;;5.43;4.05;;;10.00;72.50;;;;;;5035750;28;21666;-81
2021/03/23 00:08:37;;;;;;;5.53;4.15;;;10.00;72.50;;;;;;5018959;28;20112;-83
2021/03/23 00:11:10;;;;;;;5.78;4.25;;;10.00;72.60;;;;;;5022850;28;20033;-82
2021/03/23 00:13:38;;;;;;;6.28;4.10;;;9.90;72.50;;;;;;5047315;28;20021;-82
2021/03/23 00:16:04;;;;;;;6.10;4.45;;;10.00;72.60;;;;;;5028605;28;20021;-81
2021/03/23 00:18:31;;;;;;;5.53;4.05;;;10.00;72.60;;;;;;5013517;28;20194;-81
2021/03/23 00:20:57;;;;;;;6.35;4.47;;;9.90;72.50;;;;;;5034253;28;20029;-81
2021/03/23 00:23:22;;;;;;;6.07;4.60;;;10.00;72.60;;;;;;5031757;28;20027;-82
2021/03/23 00:25:48;;;;;;;5.28;4.05;;;9.90;72.60;;;;;;5034090;28;20112;-82
2021/03/23 00:28:14;;;;;;;6.22;4.50;;;9.90;72.60;;;;;;5003542;28;20029;-82
2021/03/23 00:30:40;;;;;;;6.75;4.40;;;9.90;72.60;;;;;;5009434;28;20032;-82
2021/03/23 00:33:06;;;;;;;6.07;4.68;;;9.90;72.60;;;;;;5001891;28;20036;-82
2021/03/23 00:35:32;;;;;;;6.22;4.43;;;9.90;72.60;;;;;;5026209;28;20196;-82
2021/03/23 00:38:01;;;;;;;6.15;4.45;;;9.90;72.60;;;;;;5011514;28;20396;-81
2021/03/23 00:40:34;;;;;;;6.22;4.20;;;9.90;72.60;;;;;;5010375;28;20083;-82
2021/03/23 00:43:02;;;;;;;6.35;4.75;;;9.90;72.60;;;;;;5030157;28;20039;-81
2021/03/23 00:45:29;;;;;;;5.85;4.13;;;9.90;72.60;;;;;;5018932;28;20056;-81
2021/03/23 00:47:55;;;;;;;5.72;4.18;;;9.90;72.60;;;;;;5030633;28;20067;-81
2021/03/23 00:50:20;;;;;;;6.97;4.32;;;9.90;72.60;;;;;;5019023;28;20385;-81
2021/03/23 00:52:47;;;;;;;6.43;4.75;;;9.90;72.60;;;;;;5002128;28;20044;-81
2021/03/23 00:55:13;;;;;;;5.60;4.07;;;9.90;72.60;;;;;;5015048;28;20128;-82
2021/03/23 00:57:39;;;;;;;5.90;3.90;;;9.90;72.70;;;;;;4991572;28;20029;-82
2021/03/23 01:00:09;;;;;;;6.00;4.28;;;9.90;72.70;;;;;;4998245;28;20048;-80
2021/03/23 01:02:35;;;;;;;5.28;4.00;;;9.80;72.60;;;;;;5022804;28;20029;-81
2021/03/23 01:05:01;;;;;;;5.68;4.20;;;9.80;72.60;;;;;;5016769;28;20041;-82
2021/03/23 01:07:26;;;;;;;5.72;4.22;;;9.80;72.60;;;;;;5003986;28;20017;-81
2021/03/23 01:09:52;;;;;;;5.47;4.07;;;9.80;72.60;;;;;;5015138;28;20033;-81
2021/03/23 01:12:18;;;;;;;5.57;4.47;;;9.80;73.20;;;;;;5032878;28;20033;-83
2021/03/23 01:14:44;;;;;;;6.05;4.20;;;9.80;72.60;;;;;;5018644;28;20110;-81
2021/03/23 01:17:10;;;;;;;5.40;4.20;;;9.80;72.60;;;;;;5017375;28;20029;-81
2021/03/23 01:19:35;;;;;;;5.40;3.95;;;9.80;72.60;;;;;;5036424;28;20082;-82
2021/03/23 01:22:02;;;;;;;6.13;4.30;;;9.80;72.60;;;;;;5054261;28;20036;-82
2021/03/23 01:24:29;;;;;;;5.22;3.95;;;9.80;72.60;;;;;;5059535;28;20031;-81
2021/03/23 01:26:54;;;;;;;5.50;4.22;;;9.70;72.60;;;;;;5047213;28;20029;-81
2021/03/23 01:29:20;;;;;;;5.05;3.88;;;9.80;72.60;;;;;;5037689;28;20120;-83
2021/03/23 01:31:46;;;;;;;5.28;3.80;;;9.80;72.60;;;;;;5054083;28;20120;-81
2021/03/23 01:34:12;;;;;;;5.95;3.72;;;9.80;72.60;;;;;;5070650;28;20063;-81
2021/03/23 01:36:37;;;;;;;5.20;4.07;;;9.80;72.60;;;;;;5020861;28;20035;-82
2021/03/23 01:39:04;;;;;;;5.85;4.15;;;9.70;72.60;;;;;;5054508;28;20024;-82
2021/03/23 01:41:31;;;;;;;6.20;4.25;;;9.70;72.60;;;;;;5050842;28;20029;-81
2021/03/23 01:43:56;;;;;;;6.55;4.15;;;9.70;72.60;;;;;;5050022;28;20028;-81
2021/03/23 01:46:42;;;;;;;5.85;4.07;;;9.70;72.60;;;;;;5070155;28;20021;-84
2021/03/23 01:49:29;;;;;;;5.63;4.03;;;9.70;72.70;;;;;;5068613;28;20094;-81
2021/03/23 01:51:58;;;;;;;5.95;4.13;;;9.70;72.60;;;;;;5070768;28;20112;-81
2021/03/23 01:54:30;;;;;;;5.03;3.70;;;9.70;72.60;;;;;;5070721;28;20025;-82
2021/03/23 01:57:04;;;;;;;5.07;3.58;;;9.70;72.70;;;;;;5044470;28;20476;-81
2021/03/23 01:59:35;;;;;;;5.10;3.70;;;9.70;72.70;;;;;;5059825;28;20029;-82
2021/03/23 02:02:02;;;;;;;5.03;3.80;;;9.70;72.70;;;;;;5072361;28;20530;-81
2021/03/23 02:04:28;;;;;;;6.13;3.78;;;9.70;72.70;;;;;;5074549;28;20028;-81
2021/03/23 02:06:54;;;;;;;4.85;3.72;;;9.70;72.70;;;;;;5056116;28;20039;-81
2021/03/23 02:09:28;;;;;;;5.43;3.92;;;9.70;72.70;;;;;;5056977;28;20465;-81
2021/03/23 02:12:01;;;;;;;5.97;3.85;;;9.60;72.60;;;;;;5071816;28;20037;-82
2021/03/23 02:14:31;;;;;;;6.00;3.78;;;9.60;72.60;;;;;;5063186;28;20036;-82
2021/03/23 02:17:13;;;;;;;6.07;3.88;;;9.60;72.60;;;;;;5057213;28;20115;-81
2021/03/23 02:19:41;;;;;;;5.03;3.58;;;9.60;72.70;;;;;;5042157;28;20083;-82
2021/03/23 02:22:31;;;;;;;5.40;3.78;;;9.60;72.60;;;;;;5051791;28;20253;-81
2021/03/23 02:24:57;;;;;;;5.05;3.95;;;9.60;72.70;;;;;;5048869;28;20097;-82
2021/03/23 02:27:25;;;;;;;5.70;3.97;;;9.60;72.60;;;;;;5048109;28;20075;-81
2021/03/23 02:29:53;;;;;;;5.68;3.85;;;9.60;72.60;;;;;;5038649;28;20032;-82
2021/03/23 02:32:19;;;;;;;5.13;3.90;;;9.60;72.70;;;;;;5055934;28;20037;-81
2021/03/23 02:34:45;;;;;;;5.65;3.90;;;9.60;72.70;;;;;;5057106;28;20028;-81
2021/03/23 02:37:11;;;;;;;5.45;3.97;;;9.60;72.60;;;;;;5054209;28;20432;-81
2021/03/23 02:39:37;;;;;;;5.70;3.97;;;9.60;72.70;;;;;;5073895;28;20028;-81
2021/03/23 02:42:04;;;;;;;5.78;4.22;;;9.60;72.60;;;;;;5057345;28;20477;-81
2021/03/23 02:44:41;;;;;;;4.85;3.53;;;9.60;72.70;;;;;;5040591;28;20028;-83
2021/03/23 02:47:08;;;;;;;5.63;4.25;;;9.60;72.70;;;;;;5056997;28;20052;-81
2021/03/23 02:49:33;;;;;;;6.25;4.45;;;9.60;72.70;;;;;;5056833;28;20021;-81
2021/03/23 02:51:59;;;;;;;6.25;4.30;;;9.60;72.70;;;;;;5036943;28;20086;-81
2021/03/23 02:54:25;;;;;;;5.80;4.25;;;9.60;72.70;;;;;;5064470;28;20246;-81
2021/03/23 02:56:52;;;;;;;5.97;4.70;;;9.50;72.60;;;;;;5056717;28;20028;-81
2021/03/23 02:59:18;;;;;;;6.90;4.93;;;9.60;72.70;;;;;;5056302;28;20381;-80
2021/03/23 03:01:43;;;;;;;6.30;4.55;;;9.60;72.70;;;;;;5034611;28;20029;-81
2021/03/23 03:04:11;;;;;;;6.25;4.20;;;9.60;72.70;;;;;;5037377;28;20033;-81
2021/03/23 03:06:37;;;;;;;7.03;4.78;;;9.60;72.70;;;;;;5053711;28;20031;-81
2021/03/23 03:09:04;;;;;;;6.35;4.68;;;9.60;72.70;;;;;;5056736;28;20146;-81
2021/03/23 03:11:30;;;;;;;7.35;4.90;;;9.50;72.60;;;;;;5061611;28;20113;-81
2021/03/23 03:13:56;;;;;;;6.53;4.55;;;9.50;72.70;;;;;;5021134;28;20017;-82
2021/03/23 03:16:24;;;;;;;6.57;4.78;;;9.50;72.70;;;;;;5040486;28;20029;-81
2021/03/23 03:18:49;;;;;;;7.18;5.68;;;9.50;72.70;;;;;;5047077;28;20048;-81
2021/03/23 03:21:16;;;;;;;6.55;4.45;;;9.60;72.80;;;;;;5032598;28;20055;-81
2021/03/23 03:23:41;;;;;;;6.90;5.32;;;9.60;72.70;;;;;;5036466;28;20041;-81
2021/03/23 03:26:07;;;;;;;7.20;5.07;;;9.50;72.70;;;;;;5002743;28;20029;-81
2021/03/23 03:28:34;;;;;;;6.93;5.18;;;9.50;72.70;;;;;;5011251;28;20033;-82
2021/03/23 03:31:00;;;;;;;6.85;5.10;;;9.50;72.70;;;;;;5019155;28;20037;-82
2021/03/23 03:33:26;;;;;;;7.20;5.13;;;9.50;72.80;;;;;;4991111;28;20045;-81
2021/03/23 03:35:52;;;;;;;7.47;4.97;;;9.50;72.80;;;;;;5006183;28;20080;-82
2021/03/23 03:38:21;;;;;;;7.32;5.78;;;9.50;72.80;;;;;;5038992;28;20125;-82
2021/03/23 03:40:50;;;;;;;6.75;5.15;;;9.50;72.80;;;;;;5046918;28;20028;-82
2021/03/23 03:43:19;;;;;;;7.07;5.13;;;9.50;72.80;;;;;;5029205;28;20121;-82
2021/03/23 03:45:44;;;;;;;7.63;5.57;;;9.50;72.80;;;;;;5021814;28;20155;-82
2021/03/23 03:48:10;;;;;;;7.88;5.82;;;9.50;72.70;;;;;;5035329;28;20477;-82
2021/03/23 03:50:37;;;;;;;8.13;5.70;;;9.50;72.80;;;;;;5019289;28;20029;-82
2021/03/23 03:53:03;;;;;;;7.32;5.43;;;9.40;72.80;;;;;;5018392;28;20494;-83
2021/03/23 03:55:35;;;;;;;7.80;5.43;;;9.50;72.80;;;;;;5021425;28;20174;-82
2021/03/23 03:58:01;;;;;;;7.15;5.32;;;9.50;72.80;;;;;;5023725;28;20033;-82
2021/03/23 04:00:29;;;;;;;7.85;6.07;;;9.50;72.80;;;;;;5019246;28;20098;-81
2021/03/23 04:02:56;;;;;;;7.57;5.85;;;9.50;72.80;;;;;;5019173;28;20059;-83
2021/03/23 04:05:29;;;;;;;6.88;5.25;;;9.40;72.80;;;;;;5035502;28;20039;-82
2021/03/23 04:07:55;;;;;;;8.23;6.10;;;9.40;72.80;;;;;;5053034;28;20469;-81
2021/03/23 04:10:21;;;;;;;8.18;6.10;;;9.40;72.70;;;;;;5018438;28;20025;-82
2021/03/23 04:12:48;;;;;;;7.55;5.85;;;9.40;72.80;;;;;;5018584;28;20029;-82
2021/03/23 04:15:20;;;;;;;7.30;5.32;;;9.40;72.80;;;;;;5035530;28;20087;-81
2021/03/23 04:17:45;;;;;;;7.85;6.03;;;9.40;72.80;;;;;;5035350;28;20083;-82
2021/03/23 04:20:13;;;;;;;8.13;6.15;;;9.40;72.80;;;;;;5043774;28;20056;-81
2021/03/23 04:22:39;;;;;;;8.98;6.57;;;9.40;72.80;;;;;;5067715;28;20126;-82
2021/03/23 04:25:10;;;;;;;8.75;6.63;;;9.40;72.80;;;;;;5055341;28;20047;-82
2021/03/23 04:27:37;;;;;;;7.82;5.72;;;9.40;72.80;;;;;;5071775;28;20069;-82
2021/03/23 04:30:05;;;;;;;8.23;6.30;;;9.40;72.80;;;;;;5039710;28;20814;-82
2021/03/23 04:32:31;;;;;;;7.53;5.63;;;9.40;72.80;;;;;;5055115;28;20067;-81
2021/03/23 04:34:57;;;;;;;9.82;7.03;;;9.40;72.80;;;;;;5054631;28;20064;-81
2021/03/23 04:37:23;;;;;;;9.00;6.63;;;9.40;72.80;;;;;;5054450;28;20031;-82
2021/03/23 04:39:49;;;;;;;8.85;6.75;;;9.40;72.80;;;;;;5061404;28;20024;-82
2021/03/23 04:42:15;;;;;;;8.98;6.82;;;9.40;73.40;;;;;;5037764;28;20115;-82
2021/03/23 04:44:42;;;;;;;8.13;6.07;;;9.40;72.80;;;;;;5048542;28;20036;-81
2021/03/23 04:47:08;;;;;;;9.02;7.07;;;9.40;72.80;;;;;;5054539;28;20074;-81
2021/03/23 04:49:33;;;;;;;9.13;6.93;;;9.40;72.80;;;;;;5030807;28;20037;-82
2021/03/23 04:51:59;;;;;;;9.93;7.03;;;9.40;72.80;;;;;;5067723;28;20037;-82
2021/03/23 04:54:25;;;;;;;10.02;7.47;;;9.40;72.80;;;;;;5060623;28;20033;-82
2021/03/23 04:56:51;;;;;;;10.15;7.45;;;9.40;72.80;;;;;;5041231;28;20056;-82
2021/03/23 04:59:17;;;;;;;9.70;7.50;;;9.30;72.80;;;;;;5038465;28;20028;-82
2021/03/23 05:01:43;;;;;;;8.95;6.70;;;9.30;72.70;;;;;;5037564;28;20028;-82
2021/03/23 05:04:17;;;;;;;9.05;6.85;;;9.30;72.70;;;;;;5050473;28;20029;-81
2021/03/23 05:06:43;;;;;;;9.75;7.18;;;9.30;72.80;;;;;;5054680;28;20052;-82
2021/03/23 05:09:09;;;;;;;10.95;7.40;;;9.30;72.70;;;;;;5049891;28;20043;-81
2021/03/23 05:11:36;;;;;;;9.77;7.47;;;9.30;72.70;;;;;;5054629;28;20506;-81
2021/03/23 05:14:03;;;;;;;9.70;7.20;;;9.30;72.70;;;;;;5053920;28;20062;-81
2021/03/23 05:16:29;;;;;;;10.35;7.72;;;9.30;73.40;;;;;;5044852;28;20025;-82
2021/03/23 05:18:55;;;;;;;9.88;7.32;;;9.30;72.80;;;;;;5049273;28;20049;-82
2021/03/23 05:21:22;;;;;;;10.70;7.90;;;9.30;72.80;;;;;;5018254;28;20057;-82
2021/03/23 05:23:48;;;;;;;10.18;7.50;;;9.30;72.80;;;;;;5006480;28;20034;-81
2021/03/23 05:26:14;;;;;;;10.35;7.70;;;9.30;72.80;;;;;;5013910;28;20466;-81
2021/03/23 05:28:40;;;;;;;9.95;7.57;;;9.30;72.80;;;;;;5005304;28;20055;-81
2021/03/23 05:31:06;;;;;;;10.40;7.38;;;9.30;72.80;;;;;;5047343;28;20032;-81
2021/03/23 05:33:32;;;;;;;10.98;8.35;;;9.30;72.80;;;;;;5029086;28;20053;-83
2021/03/23 05:35:59;;;;;;;11.48;7.40;;;9.30;72.80;;;;;;5035134;28;20039;-82
2021/03/23 05:38:28;;;;;;;10.65;7.53;;;9.30;72.80;;;;;;5020651;28;20151;-82
2021/03/23 05:41:22;;;;;;;10.65;8.10;;;9.30;72.80;;;;;;5031956;28;20040;-82
2021/03/23 05:43:57;;;;;;;9.52;6.97;;;9.20;72.80;;;;;;5015387;28;20116;-82
2021/03/23 05:46:30;;;;;;;;;;;9.20;72.80;;;;;;5034611;28;20112;-80
2021/03/23 05:49:17;;;;;;;9.82;6.53;;;9.20;72.80;;;;;;5036879;28;20018;-81
2021/03/23 05:52:04;;;;;;;9.98;7.53;;;9.20;72.60;;;;;;5030216;28;20476;-82
2021/03/23 05:54:54;;;;;;;9.80;7.28;;;9.20;72.90;;;;;;5010757;28;20017;-83
2021/03/23 05:57:33;;;;;;;10.07;7.20;;;9.20;72.90;;;;;;5010650;28;20033;-82
2021/03/23 06:00:05;;;;;;;9.07;7.35;;;9.20;73.00;;;;;;5031052;28;20078;-82
2021/03/23 06:02:50;;;;;;;10.93;7.78;;;9.20;72.90;;;;;;5029852;28;20040;-82
2021/03/23 06:05:46;;;;;;;10.98;7.90;;;9.20;73.00;;;;;;5017719;28;20041;-82
2021/03/23 06:08:29;;;;;;;9.90;7.25;;;9.10;72.90;;;;;;5034297;28;20025;-83
2021/03/23 06:11:20;;;;;;;9.70;7.43;;;9.10;72.90;;;;;;5018065;28;20457;-82
2021/03/23 06:14:12;;;;;;;10.02;7.88;;;9.10;72.90;;;;;;5052920;28;20029;-82
2021/03/23 06:16:49;;;;;;;12.48;7.65;;;9.10;72.90;;;;;;5035350;28;20176;-82
2021/03/23 06:19:31;;;;;;;9.43;6.95;;;9.10;72.90;;;;;;5008511;28;20429;-82
2021/03/23 06:22:06;;;;;;;12.05;7.78;;;9.10;73.00;;;;;;5012479;28;20033;-82
2021/03/23 06:24:54;;;;;;;11.38;8.30;;;9.10;73.00;;;;;;5047666;28;20025;-80
2021/03/23 06:27:58;;;;;;;9.20;7.45;;;9.10;73.10;;;;;;5028029;28;20540;-84
2021/03/23 06:30:59;;;;;;;9.70;7.72;;;9.10;73.10;;;;;;4950717;28;20498;-84
2021/03/23 06:33:28;;;;;;;10.48;6.97;;;9.00;73.00;;;;;;5032708;28;20385;-82
2021/03/23 06:36:00;;;;;;;9.77;7.53;;;9.10;73.00;;;;;;5045833;28;20027;-80
2021/03/23 06:38:35;;;;;;;10.10;7.93;;;9.10;73.00;;;;;;5050611;28;20029;-79
2021/03/23 06:41:12;;;;;;;10.00;7.47;;;9.00;73.00;;;;;;5018372;28;20159;-79
2021/03/23 06:43:40;;;;;;;9.98;7.47;;;9.00;73.00;;;;;;5036810;28;20044;-79
2021/03/23 06:46:32;;;;;;;13.43;8.45;;;9.00;72.90;;;;;;5030826;28;20024;-79
2021/03/23 06:49:13;;;;;;;9.10;6.68;;;9.00;73.10;;;;;;5018022;28;20041;-80
2021/03/23 06:52:00;;;;;;;10.20;8.02;;;9.00;73.00;;;;;;5036799;28;20052;-80
2021/03/23 06:54:30;;;;;;;9.52;7.32;;;9.00;73.10;;;;;;5035928;28;20064;-80
2021/03/23 06:57:16;;;;;;;11.13;7.75;;;9.00;72.90;;;;;;5036808;28;20060;-80
2021/03/23 07:00:16;;;;;;;10.75;7.72;;;9.00;73.10;;;;;;5036694;28;20032;-79
2021/03/23 07:02:50;;;;;;;10.27;8.02;;;9.00;73.00;;;;;;5019326;28;20385;-80
2021/03/23 07:05:22;;;;;;;10.88;7.95;;;9.00;73.00;;;;;;5019906;28;20433;-80
2021/03/23 07:08:08;;;;;;;10.25;7.10;;;8.90;72.90;;;;;;5019730;28;20116;-80
2021/03/23 07:11:01;;;;;;;10.07;7.63;;;9.00;73.00;;;;;;5036579;28;20028;-79
2021/03/23 07:13:30;;;;;;;10.40;7.50;;;9.00;73.00;;;;;;5055256;28;20154;-78
2021/03/23 07:16:10;;;;;;;11.60;8.07;;;9.00;73.00;;;;;;5053936;28;20053;-79
2021/03/23 07:18:40;;;;;;;10.30;7.93;;;9.00;73.10;;;;;;5044565;28;20029;-78
2021/03/23 07:21:22;;;;;;;10.57;7.78;;;9.00;73.00;;;;;;5064971;28;20040;-79
2021/03/23 07:24:06;;;;;;;9.27;6.68;;;9.00;73.10;;;;;;5056672;28;20051;-79
2021/03/23 07:26:35;;;;;;;10.18;7.47;;;9.00;73.80;;;;;;5068427;28;20055;-79
2021/03/23 07:29:10;;;;;;;9.82;7.55;;;9.00;73.10;;;;;;5062492;28;20025;-79
2021/03/23 07:32:15;;;;;;;10.38;7.82;;;9.00;73.10;;;;;;5056349;28;20533;-79
2021/03/23 07:35:01;;;;;;;9.52;6.93;;;9.00;73.10;;;;;;5034063;28;20041;-79
2021/03/23 07:37:49;;;;;;;10.18;7.70;;;9.00;73.10;;;;;;5051144;28;20525;-80
2021/03/23 07:40:38;;;;;;;11.30;7.90;;;9.00;73.10;;;;;;5059622;28;20381;-79
2021/03/23 07:43:17;;;;;;;9.63;7.22;;;9.00;73.20;;;;;;5042852;28;20159;-79
2021/03/23 07:45:57;;;;;;;13.35;7.88;;;9.00;73.10;;;;;;5047002;28;20127;-78
2021/03/23 07:48:33;;;;;;;11.45;8.23;;;9.00;73.10;;;;;;5045117;28;20028;-79
2021/03/23 07:51:22;;;;;;;11.05;7.25;;;9.00;73.10;;;;;;5070576;28;20031;-80
2021/03/23 07:53:47;;;;;;;10.38;7.22;;;9.00;73.20;;;;;;5067196;28;20527;-79
2021/03/23 07:56:13;;;;;;;11.48;8.13;;;9.10;73.10;;;;;;5047975;28;20025;-80
2021/03/23 07:59:07;;;;;;;9.93;7.85;;;9.10;73.10;;;;;;5066709;28;20040;-80
2021/03/23 08:01:44;;;;;;;10.68;7.35;;;9.10;73.20;;;;;;5072551;28;20078;-79
2021/03/23 08:04:12;;;;;;;11.15;8.18;;;9.10;73.20;;;;;;5064803;28;20461;-79
2021/03/23 08:06:58;;;;;;;12.00;8.75;;;9.10;73.10;;;;;;5072834;28;20036;-79
2021/03/23 08:09:50;;;;;;;11.32;8.02;;;9.10;73.30;;;;;;5055483;28;20025;-80
2021/03/23 08:12:37;;;;;;;10.35;8.35;;;9.20;73.20;;;;;;5055257;28;20044;-80
2021/03/23 08:15:22;;;;;;;12.35;8.55;;;9.20;73.20;;;;;;5071748;28;20030;-80
2021/03/23 08:17:48;;;;;;;;;;;9.20;73.20;;;;;;5073286;28;20028;-79
2021/03/23 08:20:35;;;;;;;12.65;9.32;;;9.20;73.20;;;;;;5060233;28;20424;-79
2021/03/23 08:23:07;;;;;;;12.43;8.90;;;9.20;73.20;;;;;;5021675;28;20112;-79
2021/03/23 08:25:48;;;;;;;15.27;10.80;;;9.20;73.20;;;;;;5013333;28;20403;-79
2021/03/23 08:28:19;;;;;;;14.73;10.77;;;9.20;73.30;;;;;;5005849;28;20087;-81
2021/03/23 08:30:55;;;;;;;15.23;10.35;;;9.20;73.20;;;;;;5015204;28;20036;-81
2021/03/23 08:33:42;;;;;;;15.90;10.88;;;9.30;73.30;;;;;;5034227;28;20493;-81
2021/03/23 08:36:26;;;;;;;16.25;11.13;;;9.30;73.40;;;;;;5035059;28;20029;-81
2021/03/23 08:39:29;;;;;;;17.23;11.00;;;9.30;73.30;;;;;;5034764;28;20018;-81
2021/03/23 08:41:55;;;;;;;17.90;11.57;;;9.40;73.40;;;;;;5031134;28;20147;-81
2021/03/23 08:44:33;;;;;;;17.67;12.40;;;9.40;73.20;;;;;;5006445;28;20061;-81
2021/03/23 08:47:12;;;;;;;19.75;12.48;;;9.40;73.40;;;;;;5015003;28;20022;-82
2021/03/23 08:49:41;;;;;;;17.77;12.15;;;9.50;73.40;;;;;;5044154;28;20470;-81
2021/03/23 08:52:33;;;;;;;16.35;12.32;;;9.50;73.30;;;;;;5017182;28;20037;-81
2021/03/23 08:54:59;;;;;;;17.80;12.25;;;9.50;73.40;;;;;;5024650;28;20462;-81
2021/03/23 08:57:50;;;;;;;19.52;12.38;;;9.50;73.20;;;;;;5032751;28;20027;-81
2021/03/23 09:00:34;;;;;;;17.63;12.95;;;9.60;73.50;;;;;;5026834;28;20099;-82
2021/03/23 09:03:21;;;;;;;20.10;13.73;;;9.60;73.40;;;;;;5024201;28;20515;-82
2021/03/23 09:05:55;;;;;;;19.73;13.13;;;9.60;73.20;;;;;;5041738;28;20161;-81
2021/03/23 09:08:21;;;;;;;17.25;12.13;;;9.60;73.20;;;;;;5019345;28;20068;-81
2021/03/23 09:10:52;;;;;;;17.92;12.52;;;9.60;73.20;;;;;;5017348;28;20433;-82
2021/03/23 09:13:43;;;;;;;18.83;12.95;;;9.70;73.30;;;;;;5054078;28;20512;-81
2021/03/23 09:16:12;;;;;;;21.50;13.05;;;9.70;73.40;;;;;;4988206;28;20044;-80
2021/03/23 09:19:04;;;;;;;17.98;12.13;;;9.70;73.20;;;;;;5027580;28;20082;-80
2021/03/23 09:21:52;;;;;;;19.45;12.68;;;9.70;73.30;;;;;;5021168;28;20065;-79
2021/03/23 09:24:34;;;;;;;18.23;12.07;;;9.80;73.40;;;;;;5032077;28;20037;-80
2021/03/23 09:27:02;;;;;;;18.08;12.50;;;9.80;73.30;;;;;;5018555;28;20424;-80
2021/03/23 09:29:31;;;;;;;18.38;12.50;;;9.80;73.20;;;;;;5038199;28;20471;-81
2021/03/23 09:32:02;;;;;;;18.63;12.52;;;9.80;73.30;;;;;;5025678;28;20041;-81
2021/03/23 09:35:13;;;;;;;18.63;12.25;;;9.80;73.30;;;;;;5017853;28;20033;-81
2021/03/23 09:37:59;;;;;;;17.17;11.63;;;9.80;73.30;;;;;;5044593;28;20025;-81
2021/03/23 09:40:40;;;;;;;17.63;11.98;;;9.80;73.20;;;;;;5035211;28;20028;-80
2021/03/23 09:43:35;;;;;;;17.42;12.63;;;9.90;73.30;;;;;;5011879;28;20082;-80
2021/03/23 09:46:23;;;;;;;18.70;12.27;;;9.90;73.40;;;;;;5030383;28;20090;-79
2021/03/23 09:48:55;;;;;;;15.68;10.90;;;9.90;73.30;;;;;;5018206;28;20032;-80
2021/03/23 09:51:33;;;;;;;18.63;12.25;;;9.90;73.20;;;;;;5033897;28;20021;-80
2021/03/23 09:53:59;;;;;;;17.45;12.07;;;10.00;73.30;;;;;;5034011;28;20056;-80
2021/03/23 09:56:35;;;;;;;17.65;12.30;;;9.90;73.10;;;;;;5000928;28;20029;-80
2021/03/23 09:59:05;;;;;;;17.13;11.70;;;10.00;73.30;;;;;;5033785;28;20025;-80
2021/03/23 10:01:31;;;;;;;16.80;11.70;;;10.00;73.20;;;;;;5051495;28;20079;-80
2021/03/23 10:03:58;;;;;;;18.92;12.20;;;10.00;73.20;;;;;;5017053;28;20120;-79
2021/03/23 10:06:43;;;;;;;17.20;12.07;;;10.10;73.30;;;;;;5007422;28;20509;-80
2021/03/23 10:09:09;;;;;;;17.85;12.20;;;10.10;73.30;;;;;;5002146;28;20105;-81
2021/03/23 10:11:37;;;;;;;16.60;10.63;;;10.10;73.80;;;;;;5017284;28;20120;-81
2021/03/23 10:14:10;;;;;;;17.15;11.57;;;10.10;73.10;;;;;;5033993;28;20155;-80
2021/03/23 10:16:41;;;;;;;17.55;11.60;;;10.10;73.10;;;;;;5018255;28;20124;-81
2021/03/23 10:19:19;;;;;;;17.75;12.40;;;10.20;73.20;;;;;;5040684;28;20045;-81
2021/03/23 10:21:50;;;;;;;17.88;11.88;;;10.20;73.20;;;;;;5071814;28;20070;-82
2021/03/23 10:24:25;;;;;;;18.58;12.25;;;10.20;73.10;;;;;;5073531;28;20059;-81
2021/03/23 10:26:53;;;;;;;16.10;11.20;;;10.20;73.10;;;;;;5063727;28;20033;-81
2021/03/23 10:29:26;;;;;;;17.70;11.50;;;10.30;73.10;;;;;;5058845;28;20049;-80
2021/03/23 10:31:56;;;;;;;17.23;11.45;;;10.30;73.10;;;;;;5056734;28;20128;-81
2021/03/23 10:34:23;;;;;;;15.38;10.73;;;10.30;73.10;;;;;;5073386;28;20032;-82
2021/03/23 10:36:53;;;;;;;17.08;11.45;;;10.30;73.10;;;;;;5073065;28;20031;-80
2021/03/23 10:39:47;;;;;;;14.65;10.65;;;10.30;73.00;;;;;;5062749;28;20025;-81
2021/03/23 10:42:16;;;;;;;16.73;11.23;;;10.40;73.20;;;;;;5061603;28;20024;-82
2021/03/23 10:44:42;;;;;;;15.77;11.13;;;10.40;72.90;;;;;;5064884;28;20022;-82
2021/03/23 10:47:34;;;;;;;17.30;10.93;;;10.50;73.00;;;;;;5052132;28;20119;-78
2021/03/23 10:50:30;;;;;;;16.95;11.25;;;10.50;73.00;;;;;;5056335;28;20027;-81
2021/03/23 10:53:09;;;;;;;16.83;11.30;;;10.60;73.10;;;;;;5066933;28;20397;-77
2021/03/23 10:55:40;;;;;;;16.40;11.48;;;10.60;73.00;;;;;;5074378;28;20060;-79
2021/03/23 10:58:16;;;;;;;17.20;11.77;;;10.60;72.90;;;;;;5069420;28;20035;-79
2021/03/23 11:00:42;;;;;;;17.83;11.82;;;10.70;73.00;;;;;;5068677;28;20029;-80
2021/03/23 11:03:28;;;;;;;17.23;11.02;;;10.70;73.50;;;;;;5050985;28;20029;-80
2021/03/23 11:05:55;;;;;;;18.70;12.07;;;10.70;73.00;;;;;;5074264;28;20086;-79
2021/03/23 11:08:21;;;;;;;17.95;11.23;;;10.70;72.80;;;;;;5055937;28;20021;-80
2021/03/23 11:10:48;;;;;;;15.77;11.38;;;10.80;72.80;;;;;;5056115;28;20509;-77
2021/03/23 11:13:15;;;;;;;16.92;11.85;;;10.80;72.80;;;;;;5053989;28;20045;-77
2021/03/23 11:15:43;;;;;;;18.85;12.50;;;10.90;72.90;;;;;;5073766;28;20032;-79
2021/03/23 11:18:30;;;;;;;17.23;11.65;;;10.90;72.80;;;;;;5073038;28;20035;-81
2021/03/23 11:20:59;;;;;;;17.38;12.18;;;10.90;72.90;;;;;;5048242;28;20091;-80
2021/03/23 11:23:37;;;;;;;18.25;12.10;;;11.00;72.70;;;;;;5035932;28;20113;-77
2021/03/23 11:26:04;;;;;;;16.67;11.63;;;11.00;72.70;;;;;;5036458;28;20071;-77
2021/03/23 11:28:31;;;;;;;16.05;11.15;;;11.10;72.70;;;;;;5018731;28;20017;-79
2021/03/23 11:31:01;;;;;;;16.63;11.18;;;11.10;72.60;;;;;;5036030;28;20035;-78
2021/03/23 11:33:28;;;;;;;18.77;13.18;;;11.20;72.70;;;;;;5018918;28;20171;-79
2021/03/23 11:35:55;;;;;;;16.63;12.05;;;11.20;72.60;;;;;;5009074;28;20466;-80
2021/03/23 11:38:21;;;;;;;17.30;11.93;;;11.20;72.60;;;;;;5032644;28;20056;-80
2021/03/23 11:40:48;;;;;;;19.38;12.27;;;11.30;72.60;;;;;;5019427;28;20481;-78
2021/03/23 11:43:32;;;;;;;18.08;11.98;;;11.30;72.50;;;;;;5052281;28;20028;-78
2021/03/23 11:46:04;;;;;;;18.02;11.88;;;11.30;72.60;;;;;;5030634;28;20078;-79
2021/03/23 11:48:35;;;;;;;16.70;11.63;;;11.40;72.50;;;;;;5032884;28;20087;-79
2021/03/23 11:51:01;;;;;;;16.17;11.88;;;11.40;72.40;;;;;;5053726;28;20024;-78
2021/03/23 11:53:27;;;;;;;19.48;12.70;;;11.40;72.40;;;;;;5018013;28;20436;-79
2021/03/23 11:55:53;;;;;;;19.35;12.45;;;11.50;72.50;;;;;;5036291;28;20037;-79
2021/03/23 11:58:20;;;;;;;17.25;12.02;;;11.50;72.50;;;;;;5019757;28;20067;-78
2021/03/23 12:00:46;;;;;;;18.08;11.85;;;11.50;72.50;;;;;;5052795;28;20021;-78
2021/03/23 12:03:13;;;;;;;18.50;12.45;;;11.60;72.50;;;;;;5018898;28;20123;-78
2021/03/23 12:05:41;;;;;;;16.35;11.93;;;11.60;72.40;;;;;;5018697;28;20121;-78
2021/03/23 12:08:36;;;;;;;17.92;12.18;;;11.60;72.40;;;;;;5034605;28;20029;-78
2021/03/23 12:11:21;;;;;;;18.27;12.00;;;11.60;72.40;;;;;;5004277;28;20450;-79
2021/03/23 12:14:10;;;;;;;16.13;11.82;;;11.70;72.30;;;;;;5015642;28;20052;-78
2021/03/23 12:16:57;;;;;;;18.98;12.15;;;11.70;72.30;;;;;;5035032;28;20075;-79
2021/03/23 12:19:25;;;;;;;18.60;11.95;;;11.80;72.30;;;;;;5026128;28;20048;-79
2021/03/23 12:21:51;;;;;;;17.80;12.18;;;11.80;72.40;;;;;;5054775;28;20028;-80
2021/03/23 12:24:22;;;;;;;16.50;12.10;;;11.80;72.30;;;;;;5040546;28;20040;-79
2021/03/23 12:26:50;;;;;;;19.58;12.55;;;11.80;72.30;;;;;;5054857;28;20032;-78
2021/03/23 12:29:16;;;;;;;20.13;11.93;;;11.90;72.30;;;;;;5059740;28;20378;-78
2021/03/23 12:31:42;;;;;;;20.33;13.32;;;11.90;72.30;;;;;;5063796;28;20024;-78
2021/03/23 12:34:08;;;;;;;21.15;13.45;;;11.90;72.20;;;;;;5066521;28;20480;-79
2021/03/23 12:36:34;;;;;;;18.27;13.35;;;11.90;72.20;;;;;;5047887;28;20545;-79
2021/03/23 12:39:02;;;;;;;18.20;13.00;;;12.00;72.30;;;;;;5071303;28;20028;-78
2021/03/23 12:41:33;;;;;;;20.27;13.18;;;12.00;72.20;;;;;;5064227;28;20036;-78
2021/03/23 12:44:00;;;;;;;18.95;14.02;;;12.00;72.20;;;;;;5070166;28;20457;-77
2021/03/23 12:46:27;;;;;;;18.67;12.85;;;12.10;72.20;;;;;;5071357;28;20021;-78
2021/03/23 12:48:52;;;;;;;19.15;13.40;;;12.10;72.20;;;;;;5070825;28;20074;-78
2021/03/23 12:51:33;;;;;;;18.00;12.70;;;12.10;72.10;;;;;;5052426;28;20461;-78
2021/03/23 12:53:59;;;;;;;18.27;12.93;;;12.10;72.20;;;;;;5054586;28;20098;-79
2021/03/23 12:56:25;;;;;;;17.77;12.70;;;12.20;72.10;;;;;;5070962;28;20421;-78
2021/03/23 12:58:51;;;;;;;18.05;12.88;;;12.20;72.10;;;;;;5034153;28;20451;-79
2021/03/23 13:01:19;;;;;;;18.77;12.75;;;12.20;72.10;;;;;;5069347;28;20565;-78
2021/03/23 13:03:45;;;;;;;18.20;12.45;;;12.20;72.10;;;;;;5070933;28;20450;-78
2021/03/23 13:06:15;;;;;;;17.27;12.23;;;12.30;72.10;;;;;;5054504;28;20111;-78
2021/03/23 13:08:43;;;;;;;19.35;12.52;;;12.30;72.10;;;;;;5070856;28;20047;-79
2021/03/23 13:11:16;;;;;;;19.60;13.40;;;12.30;72.10;;;;;;5054393;28;20029;-78
2021/03/23 13:14:03;;;;;;;17.42;12.13;;;12.30;72.10;;;;;;5053770;28;20028;-79